createdAt,value
2018-07-01T00:07:02.393Z,21
2018-07-01T00:17:01.624Z,20.9
2018-07-01T00:27:00.844Z,20.8
2018-07-01T00:37:00.070Z,20.8
2018-07-01T00:46:59.301Z,20.8
2018-07-01T00:56:58.529Z,20.8
2018-07-01T01:06:57.743Z,20.7
2018-07-01T01:16:56.972Z,20.7
2018-07-01T01:26:56.243Z,20.8
2018-07-01T01:36:55.421Z,20.7
2018-07-01T01:46:54.643Z,20.7
2018-07-01T01:56:53.868Z,20.7
2018-07-01T02:06:53.096Z,20.6
2018-07-01T02:16:52.319Z,20.6
2018-07-01T02:26:51.550Z,20.6
2018-07-01T02:36:50.772Z,20.4
2018-07-01T02:46:49.991Z,20.4
2018-07-01T02:56:49.217Z,20.3
2018-07-01T03:06:48.446Z,20.3
2018-07-01T03:16:47.670Z,20.2
2018-07-01T03:26:46.892Z,20.1
2018-07-01T03:36:46.115Z,20.1
2018-07-01T03:46:45.338Z,20.2
2018-07-01T03:56:44.565Z,20.3
2018-07-01T04:06:43.787Z,20.4
2018-07-01T04:16:43.009Z,20.6
2018-07-01T04:26:42.233Z,20.7
2018-07-01T04:36:41.456Z,20.9
2018-07-01T04:46:40.684Z,21
2018-07-01T04:56:39.904Z,21.2
2018-07-01T05:06:39.130Z,21.3
2018-07-01T05:16:38.351Z,21.5
2018-07-01T05:26:37.575Z,21.6
2018-07-01T05:36:36.798Z,21.8
2018-07-01T05:46:36.029Z,21.9
2018-07-01T05:56:35.247Z,21.9
2018-07-01T06:06:34.471Z,22.1
2018-07-01T06:16:33.743Z,22.2
2018-07-01T06:26:32.925Z,22.3
2018-07-01T06:36:32.146Z,22.4
2018-07-01T06:46:31.368Z,22.5
2018-07-01T06:56:30.702Z,22.6
2018-07-01T07:06:29.813Z,22.7
2018-07-01T07:16:29.038Z,22.8
2018-07-01T07:26:28.270Z,22.9
2018-07-01T07:36:27.485Z,22.9
2018-07-01T07:46:26.708Z,23
2018-07-01T07:56:25.933Z,23
2018-07-01T08:06:25.158Z,23.1
2018-07-01T08:16:24.380Z,23.2
2018-07-01T08:26:23.610Z,23.3
2018-07-01T08:36:22.829Z,23.4
2018-07-01T08:46:22.143Z,23.4
2018-07-01T08:56:21.334Z,23.5
2018-07-01T09:06:20.502Z,23.6
2018-07-01T09:16:19.725Z,23.6
2018-07-01T09:26:18.957Z,23.8
2018-07-01T09:36:18.182Z,24
2018-07-01T09:46:17.401Z,24.3
2018-07-01T09:56:16.623Z,23.9
2018-07-01T10:06:15.850Z,24
2018-07-01T10:16:15.075Z,23.7
2018-07-01T10:26:14.301Z,24
2018-07-01T10:36:13.526Z,24.1
2018-07-01T10:46:12.756Z,24.1
2018-07-01T10:56:11.980Z,24.1
2018-07-01T11:06:11.283Z,24.1
2018-07-01T11:16:10.477Z,24.5
2018-07-01T11:26:09.652Z,24.7
2018-07-01T11:36:08.880Z,24.6
2018-07-01T11:46:08.095Z,24.8
2018-07-01T11:56:07.317Z,24.6
2018-07-01T12:06:06.552Z,24.4
2018-07-01T12:16:05.772Z,24.6
2018-07-01T12:26:04.993Z,24.6
2018-07-01T12:36:04.219Z,24.5
2018-07-01T12:46:03.493Z,24.4
2018-07-01T12:56:02.670Z,24.4
2018-07-01T13:06:01.897Z,24.4
2018-07-01T13:16:01.123Z,24.3
2018-07-01T13:26:00.352Z,24.3
2018-07-01T13:35:59.618Z,24.2
2018-07-01T13:45:58.814Z,24.1
2018-07-01T13:55:58.057Z,24
2018-07-01T14:05:57.259Z,23.9
2018-07-01T14:15:56.489Z,23.7
2018-07-01T14:25:55.710Z,23.6
2018-07-01T14:35:54.936Z,23.6
2018-07-01T14:45:54.167Z,23.6
2018-07-01T14:55:53.390Z,23.4
2018-07-01T15:05:52.612Z,23.5
2018-07-01T15:15:51.844Z,24.5
2018-07-01T15:25:51.063Z,24.5
2018-07-01T15:35:50.290Z,24.3
2018-07-01T15:45:49.516Z,24
2018-07-01T15:55:48.795Z,23.8
2018-07-01T16:05:47.971Z,23.6
2018-07-01T16:15:47.202Z,23.6
2018-07-01T16:25:46.427Z,23.5
2018-07-01T16:35:45.654Z,23.4
2018-07-01T16:45:44.889Z,23.2
2018-07-01T16:55:44.106Z,23.1
2018-07-01T17:05:43.341Z,23.1
2018-07-01T17:15:42.560Z,22.9
2018-07-01T17:25:41.785Z,22.9
2018-07-01T17:35:41.021Z,22.8
2018-07-01T17:45:40.238Z,22.8
2018-07-01T17:55:39.464Z,22.7
2018-07-01T18:05:38.690Z,22.6
2018-07-01T18:15:37.924Z,22.6
2018-07-01T18:25:37.195Z,22.3
2018-07-01T18:35:36.372Z,22.2
2018-07-01T18:45:35.596Z,21.9
2018-07-01T18:55:34.822Z,21.7
2018-07-01T19:12:50.413Z,21.8
2018-07-01T19:22:49.609Z,21.6
2018-07-01T19:32:48.838Z,21.4
2018-07-01T19:42:48.190Z,21.3
2018-07-01T19:52:47.294Z,21.3
2018-07-01T20:02:46.521Z,21.2
2018-07-01T20:12:45.831Z,21.1
2018-07-01T20:22:45.142Z,20.9
2018-07-01T20:32:44.462Z,20.8
2018-07-01T20:42:43.762Z,20.8
2018-07-01T20:52:43.081Z,20.8
2018-07-01T21:02:42.352Z,20.7
2018-07-01T21:12:41.574Z,20.7
2018-07-01T21:22:40.801Z,20.6
2018-07-01T21:32:40.033Z,20.5
2018-07-01T21:42:39.256Z,20.5
2018-07-01T21:52:38.481Z,20.4
2018-07-01T22:02:37.756Z,20.4
2018-07-01T22:12:36.933Z,20.3
2018-07-01T22:22:36.163Z,20.3
2018-07-01T22:32:35.385Z,20.3
2018-07-01T22:42:34.613Z,20.2
2018-07-01T22:52:33.836Z,20
2018-07-01T23:02:33.070Z,19.9
2018-07-01T23:12:32.290Z,19.9
2018-07-01T23:22:31.516Z,20.1
2018-07-01T23:32:30.741Z,20.1
2018-07-01T23:42:29.966Z,20
2018-07-01T23:52:29.191Z,19.8
